sensor_id;sensor_type;location;lat;lon;timestamp;P1;durP1;ratioP1;P2;durP2;ratioP2
990;SDS011;484;48.128;11.602;2024-01-30T00:00:29;7.53;;;5.37;;
990;SDS011;484;48.128;11.602;2024-01-30T00:03:14;6.83;;;6.13;;
990;SDS011;484;48.128;11.602;2024-01-30T00:06:00;8.53;;;5.30;;
990;SDS011;484;48.128;11.602;2024-01-30T00:08:47;9.43;;;7.00;;
990;SDS011;484;48.128;11.602;2024-01-30T00:11:33;8.47;;;6.03;;
990;SDS011;484;48.128;11.602;2024-01-30T00:14:18;10.93;;;5.67;;
990;SDS011;484;48.128;11.602;2024-01-30T00:17:05;9.50;;;5.20;;
990;SDS011;484;48.128;11.602;2024-01-30T00:19:50;7.63;;;5.07;;
990;SDS011;484;48.128;11.602;2024-01-30T00:22:36;6.00;;;5.40;;
990;SDS011;484;48.128;11.602;2024-01-30T00:25:21;6.50;;;5.27;;
990;SDS011;484;48.128;11.602;2024-01-30T00:28:07;5.90;;;4.77;;
990;SDS011;484;48.128;11.602;2024-01-30T00:30:52;4.43;;;4.10;;
990;SDS011;484;48.128;11.602;2024-01-30T00:33:39;4.43;;;4.03;;
990;SDS011;484;48.128;11.602;2024-01-30T00:36:24;6.53;;;5.83;;
990;SDS011;484;48.128;11.602;2024-01-30T00:39:10;5.00;;;4.60;;
990;SDS011;484;48.128;11.602;2024-01-30T00:41:55;7.40;;;5.27;;
990;SDS011;484;48.128;11.602;2024-01-30T00:44:41;5.27;;;4.77;;
990;SDS011;484;48.128;11.602;2024-01-30T00:47:26;4.97;;;4.47;;
990;SDS011;484;48.128;11.602;2024-01-30T00:50:14;4.03;;;3.60;;
990;SDS011;484;48.128;11.602;2024-01-30T00:52:59;4.10;;;3.30;;
990;SDS011;484;48.128;11.602;2024-01-30T00:55:45;8.00;;;4.43;;
990;SDS011;484;48.128;11.602;2024-01-30T00:58:30;8.43;;;5.50;;
990;SDS011;484;48.128;11.602;2024-01-30T01:01:16;7.17;;;6.27;;
990;SDS011;484;48.128;11.602;2024-01-30T01:04:01;6.40;;;4.67;;
990;SDS011;484;48.128;11.602;2024-01-30T01:06:48;6.00;;;4.37;;
990;SDS011;484;48.128;11.602;2024-01-30T01:09:33;16.23;;;5.17;;
990;SDS011;484;48.128;11.602;2024-01-30T01:12:19;5.90;;;3.70;;
990;SDS011;484;48.128;11.602;2024-01-30T01:15:05;6.60;;;5.20;;
990;SDS011;484;48.128;11.602;2024-01-30T01:17:53;2.60;;;2.50;;
990;SDS011;484;48.128;11.602;2024-01-30T01:20:38;6.03;;;4.50;;
990;SDS011;484;48.128;11.602;2024-01-30T01:23:25;4.00;;;3.63;;
990;SDS011;484;48.128;11.602;2024-01-30T01:26:11;10.80;;;5.50;;
990;SDS011;484;48.128;11.602;2024-01-30T01:28:56;7.90;;;5.40;;
990;SDS011;484;48.128;11.602;2024-01-30T01:31:42;6.73;;;4.27;;
990;SDS011;484;48.128;11.602;2024-01-30T01:34:28;4.30;;;3.63;;
990;SDS011;484;48.128;11.602;2024-01-30T01:37:13;4.60;;;4.17;;
990;SDS011;484;48.128;11.602;2024-01-30T01:40:00;7.80;;;4.10;;
990;SDS011;484;48.128;11.602;2024-01-30T01:42:46;6.10;;;4.83;;
990;SDS011;484;48.128;11.602;2024-01-30T01:45:32;4.03;;;3.73;;
990;SDS011;484;48.128;11.602;2024-01-30T01:48:17;6.30;;;4.80;;
990;SDS011;484;48.128;11.602;2024-01-30T01:51:03;7.23;;;4.20;;
990;SDS011;484;48.128;11.602;2024-01-30T01:53:48;6.03;;;4.17;;
990;SDS011;484;48.128;11.602;2024-01-30T01:56:35;3.87;;;3.37;;
990;SDS011;484;48.128;11.602;2024-01-30T01:59:22;4.27;;;3.90;;
990;SDS011;484;48.128;11.602;2024-01-30T02:02:08;4.40;;;3.87;;
990;SDS011;484;48.128;11.602;2024-01-30T02:04:56;4.70;;;3.73;;
990;SDS011;484;48.128;11.602;2024-01-30T02:07:42;3.53;;;3.07;;
990;SDS011;484;48.128;11.602;2024-01-30T02:10:28;4.00;;;3.70;;
990;SDS011;484;48.128;11.602;2024-01-30T02:13:15;7.60;;;3.70;;
990;SDS011;484;48.128;11.602;2024-01-30T02:16:00;5.33;;;2.70;;
990;SDS011;484;48.128;11.602;2024-01-30T02:18:46;3.20;;;2.90;;
990;SDS011;484;48.128;11.602;2024-01-30T02:21:33;5.87;;;3.47;;
990;SDS011;484;48.128;11.602;2024-01-30T02:24:19;5.27;;;3.70;;
990;SDS011;484;48.128;11.602;2024-01-30T02:27:04;4.60;;;3.00;;
990;SDS011;484;48.128;11.602;2024-01-30T02:29:50;4.33;;;3.37;;
990;SDS011;484;48.128;11.602;2024-01-30T02:32:35;2.60;;;2.40;;
990;SDS011;484;48.128;11.602;2024-01-30T02:35:20;4.17;;;3.87;;
990;SDS011;484;48.128;11.602;2024-01-30T02:38:07;5.90;;;4.17;;
990;SDS011;484;48.128;11.602;2024-01-30T02:40:53;4.20;;;3.30;;
990;SDS011;484;48.128;11.602;2024-01-30T02:43:38;4.50;;;4.10;;
990;SDS011;484;48.128;11.602;2024-01-30T02:46:24;3.13;;;2.83;;
990;SDS011;484;48.128;11.602;2024-01-30T02:49:09;3.70;;;3.17;;
990;SDS011;484;48.128;11.602;2024-01-30T02:51:55;3.87;;;2.90;;
990;SDS011;484;48.128;11.602;2024-01-30T02:54:42;2.93;;;2.60;;
990;SDS011;484;48.128;11.602;2024-01-30T02:57:28;2.97;;;2.77;;
990;SDS011;484;48.128;11.602;2024-01-30T03:00:13;2.63;;;2.40;;
990;SDS011;484;48.128;11.602;2024-01-30T03:02:59;3.87;;;3.60;;
990;SDS011;484;48.128;11.602;2024-01-30T03:05:45;3.30;;;3.00;;
990;SDS011;484;48.128;11.602;2024-01-30T03:08:30;3.70;;;3.40;;
990;SDS011;484;48.128;11.602;2024-01-30T03:11:17;4.53;;;3.20;;
990;SDS011;484;48.128;11.602;2024-01-30T03:14:03;3.30;;;2.70;;
990;SDS011;484;48.128;11.602;2024-01-30T03:16:48;5.13;;;3.03;;
990;SDS011;484;48.128;11.602;2024-01-30T03:19:34;4.30;;;3.70;;
990;SDS011;484;48.128;11.602;2024-01-30T03:22:19;3.17;;;2.63;;
990;SDS011;484;48.128;11.602;2024-01-30T03:25:05;3.30;;;2.80;;
990;SDS011;484;48.128;11.602;2024-01-30T03:27:52;3.67;;;2.80;;
990;SDS011;484;48.128;11.602;2024-01-30T03:30:38;2.90;;;2.70;;
990;SDS011;484;48.128;11.602;2024-01-30T03:33:23;4.10;;;3.30;;
990;SDS011;484;48.128;11.602;2024-01-30T03:36:09;3.73;;;3.30;;
990;SDS011;484;48.128;11.602;2024-01-30T03:38:54;7.43;;;2.70;;
990;SDS011;484;48.128;11.602;2024-01-30T03:41:41;4.60;;;4.20;;
990;SDS011;484;48.128;11.602;2024-01-30T03:44:28;3.20;;;3.00;;
990;SDS011;484;48.128;11.602;2024-01-30T03:47:14;4.87;;;3.40;;
990;SDS011;484;48.128;11.602;2024-01-30T03:49:59;7.00;;;4.20;;
990;SDS011;484;48.128;11.602;2024-01-30T03:52:44;13.57;;;3.73;;
990;SDS011;484;48.128;11.602;2024-01-30T03:55:30;6.33;;;3.53;;
990;SDS011;484;48.128;11.602;2024-01-30T03:58:15;4.10;;;2.77;;
990;SDS011;484;48.128;11.602;2024-01-30T04:01:02;3.10;;;2.77;;
990;SDS011;484;48.128;11.602;2024-01-30T04:03:47;3.53;;;2.50;;
990;SDS011;484;48.128;11.602;2024-01-30T04:06:33;2.23;;;2.03;;
990;SDS011;484;48.128;11.602;2024-01-30T04:09:18;3.00;;;2.40;;
990;SDS011;484;48.128;11.602;2024-01-30T04:12:04;2.07;;;1.90;;
990;SDS011;484;48.128;11.602;2024-01-30T04:14:50;3.27;;;3.00;;
990;SDS011;484;48.128;11.602;2024-01-30T04:17:37;2.43;;;2.03;;
990;SDS011;484;48.128;11.602;2024-01-30T04:20:22;9.47;;;3.00;;
990;SDS011;484;48.128;11.602;2024-01-30T04:23:08;3.13;;;2.10;;
990;SDS011;484;48.128;11.602;2024-01-30T04:25:53;5.83;;;3.93;;
990;SDS011;484;48.128;11.602;2024-01-30T04:28:40;3.50;;;2.40;;
990;SDS011;484;48.128;11.602;2024-01-30T04:31:26;3.30;;;3.00;;
990;SDS011;484;48.128;11.602;2024-01-30T04:34:13;4.77;;;3.80;;
990;SDS011;484;48.128;11.602;2024-01-30T04:36:58;3.97;;;2.50;;
990;SDS011;484;48.128;11.602;2024-01-30T04:39:44;3.70;;;2.60;;
990;SDS011;484;48.128;11.602;2024-01-30T04:42:29;3.27;;;2.97;;
990;SDS011;484;48.128;11.602;2024-01-30T04:45:15;2.40;;;2.20;;
990;SDS011;484;48.128;11.602;2024-01-30T04:49:03;3.80;;;3.23;;
990;SDS011;484;48.128;11.602;2024-01-30T05:46:43;3.33;;;3.03;;
990;SDS011;484;48.128;11.602;2024-01-30T05:59:54;2.23;;;2.13;;
990;SDS011;484;48.128;11.602;2024-01-30T06:03:31;1.53;;;1.30;;
990;SDS011;484;48.128;11.602;2024-01-30T06:06:16;2.77;;;2.07;;
990;SDS011;484;48.128;11.602;2024-01-30T06:09:16;4.53;;;3.20;;
990;SDS011;484;48.128;11.602;2024-01-30T06:12:15;2.33;;;2.20;;
990;SDS011;484;48.128;11.602;2024-01-30T06:15:00;3.83;;;2.77;;
990;SDS011;484;48.128;11.602;2024-01-30T06:17:47;3.27;;;2.57;;
990;SDS011;484;48.128;11.602;2024-01-30T07:05:25;3.40;;;3.20;;
990;SDS011;484;48.128;11.602;2024-01-30T07:08:10;17.83;;;9.50;;
990;SDS011;484;48.128;11.602;2024-01-30T07:10:56;4.37;;;2.97;;
990;SDS011;484;48.128;11.602;2024-01-30T07:13:41;4.40;;;3.57;;
990;SDS011;484;48.128;11.602;2024-01-30T07:16:26;4.40;;;3.17;;
990;SDS011;484;48.128;11.602;2024-01-30T07:19:12;6.10;;;3.10;;
990;SDS011;484;48.128;11.602;2024-01-30T07:21:59;3.00;;;2.77;;
990;SDS011;484;48.128;11.602;2024-01-30T07:24:44;2.17;;;1.97;;
990;SDS011;484;48.128;11.602;2024-01-30T07:27:33;12.03;;;2.43;;
990;SDS011;484;48.128;11.602;2024-01-30T07:30:18;3.27;;;2.67;;
990;SDS011;484;48.128;11.602;2024-01-30T07:33:03;2.33;;;1.70;;
990;SDS011;484;48.128;11.602;2024-01-30T07:35:49;3.10;;;2.80;;
990;SDS011;484;48.128;11.602;2024-01-30T07:38:36;2.63;;;2.40;;
990;SDS011;484;48.128;11.602;2024-01-30T07:41:21;4.00;;;3.30;;
990;SDS011;484;48.128;11.602;2024-01-30T07:44:08;2.80;;;1.90;;
990;SDS011;484;48.128;11.602;2024-01-30T07:46:54;1.97;;;1.83;;
990;SDS011;484;48.128;11.602;2024-01-30T07:49:40;2.70;;;1.97;;
990;SDS011;484;48.128;11.602;2024-01-30T07:52:25;4.43;;;2.70;;
990;SDS011;484;48.128;11.602;2024-01-30T07:55:12;3.10;;;2.73;;
990;SDS011;484;48.128;11.602;2024-01-30T07:57:57;14.30;;;3.77;;
990;SDS011;484;48.128;11.602;2024-01-30T08:00:43;21.37;;;4.23;;
990;SDS011;484;48.128;11.602;2024-01-30T08:03:29;5.87;;;3.80;;
990;SDS011;484;48.128;11.602;2024-01-30T08:06:14;6.87;;;4.77;;
990;SDS011;484;48.128;11.602;2024-01-30T08:09:00;18.30;;;6.00;;
990;SDS011;484;48.128;11.602;2024-01-30T08:11:46;7.53;;;3.93;;
990;SDS011;484;48.128;11.602;2024-01-30T08:14:32;11.50;;;3.80;;
990;SDS011;484;48.128;11.602;2024-01-30T08:17:19;13.57;;;3.10;;
990;SDS011;484;48.128;11.602;2024-01-30T08:20:05;3.60;;;3.00;;
990;SDS011;484;48.128;11.602;2024-01-30T08:22:51;2.23;;;1.50;;
990;SDS011;484;48.128;11.602;2024-01-30T08:25:37;2.70;;;2.07;;
990;SDS011;484;48.128;11.602;2024-01-30T08:28:24;4.37;;;2.93;;
990;SDS011;484;48.128;11.602;2024-01-30T08:31:10;3.90;;;2.10;;
990;SDS011;484;48.128;11.602;2024-01-30T08:33:55;5.87;;;3.60;;
990;SDS011;484;48.128;11.602;2024-01-30T08:36:41;2.83;;;2.63;;
990;SDS011;484;48.128;11.602;2024-01-30T08:39:26;2.17;;;2.00;;
990;SDS011;484;48.128;11.602;2024-01-30T08:42:11;5.40;;;3.17;;
990;SDS011;484;48.128;11.602;2024-01-30T08:44:58;4.93;;;2.70;;
990;SDS011;484;48.128;11.602;2024-01-30T08:47:43;4.67;;;4.23;;
990;SDS011;484;48.128;11.602;2024-01-30T08:50:28;4.10;;;2.90;;
990;SDS011;484;48.128;11.602;2024-01-30T08:53:14;9.10;;;4.10;;
990;SDS011;484;48.128;11.602;2024-01-30T08:56:01;3.63;;;2.50;;
990;SDS011;484;48.128;11.602;2024-01-30T08:58:46;2.43;;;2.23;;
990;SDS011;484;48.128;11.602;2024-01-30T09:01:33;2.87;;;2.67;;
990;SDS011;484;48.128;11.602;2024-01-30T09:04:19;2.30;;;2.10;;
990;SDS011;484;48.128;11.602;2024-01-30T09:07:04;2.70;;;2.30;;
990;SDS011;484;48.128;11.602;2024-01-30T09:09:52;3.67;;;3.20;;
990;SDS011;484;48.128;11.602;2024-01-30T09:12:37;10.40;;;4.80;;
990;SDS011;484;48.128;11.602;2024-01-30T09:15:23;2.83;;;2.63;;
990;SDS011;484;48.128;11.602;2024-01-30T09:18:09;4.20;;;2.90;;
990;SDS011;484;48.128;11.602;2024-01-30T09:20:55;7.37;;;2.90;;
990;SDS011;484;48.128;11.602;2024-01-30T09:23:40;2.80;;;2.50;;
990;SDS011;484;48.128;11.602;2024-01-30T09:26:26;7.13;;;3.77;;
990;SDS011;484;48.128;11.602;2024-01-30T09:29:12;6.30;;;3.67;;
990;SDS011;484;48.128;11.602;2024-01-30T09:31:57;4.00;;;2.73;;
990;SDS011;484;48.128;11.602;2024-01-30T09:34:44;8.43;;;5.50;;
990;SDS011;484;48.128;11.602;2024-01-30T09:37:29;10.17;;;3.47;;
990;SDS011;484;48.128;11.602;2024-01-30T09:40:15;7.70;;;3.33;;
990;SDS011;484;48.128;11.602;2024-01-30T09:43:02;3.00;;;2.40;;
990;SDS011;484;48.128;11.602;2024-01-30T09:45:48;2.77;;;1.83;;
990;SDS011;484;48.128;11.602;2024-01-30T09:48:34;3.17;;;2.57;;
990;SDS011;484;48.128;11.602;2024-01-30T09:51:20;3.00;;;2.70;;
990;SDS011;484;48.128;11.602;2024-01-30T09:54:06;12.47;;;4.17;;
990;SDS011;484;48.128;11.602;2024-01-30T09:56:52;5.33;;;3.50;;
990;SDS011;484;48.128;11.602;2024-01-30T09:59:38;9.83;;;5.00;;
990;SDS011;484;48.128;11.602;2024-01-30T10:02:23;6.30;;;3.80;;
990;SDS011;484;48.128;11.602;2024-01-30T10:05:08;11.27;;;4.07;;
990;SDS011;484;48.128;11.602;2024-01-30T10:07:56;14.13;;;4.13;;
990;SDS011;484;48.128;11.602;2024-01-30T10:10:42;4.37;;;3.63;;
990;SDS011;484;48.128;11.602;2024-01-30T10:13:30;12.87;;;4.00;;
990;SDS011;484;48.128;11.602;2024-01-30T10:16:15;7.17;;;5.00;;
990;SDS011;484;48.128;11.602;2024-01-30T10:19:01;8.63;;;4.10;;
990;SDS011;484;48.128;11.602;2024-01-30T10:21:47;5.93;;;3.70;;
990;SDS011;484;48.128;11.602;2024-01-30T10:24:34;6.80;;;4.30;;
990;SDS011;484;48.128;11.602;2024-01-30T10:27:23;4.43;;;3.00;;
990;SDS011;484;48.128;11.602;2024-01-30T10:30:10;1.93;;;1.83;;
990;SDS011;484;48.128;11.602;2024-01-30T10:32:56;5.20;;;2.87;;
990;SDS011;484;48.128;11.602;2024-01-30T10:35:41;3.10;;;2.80;;
990;SDS011;484;48.128;11.602;2024-01-30T10:38:28;7.50;;;3.93;;
990;SDS011;484;48.128;11.602;2024-01-30T10:41:15;2.80;;;2.50;;
990;SDS011;484;48.128;11.602;2024-01-30T10:44:03;2.40;;;2.20;;
990;SDS011;484;48.128;11.602;2024-01-30T10:46:55;2.00;;;1.87;;
990;SDS011;484;48.128;11.602;2024-01-30T10:49:46;4.03;;;1.73;;
990;SDS011;484;48.128;11.602;2024-01-30T10:52:31;8.97;;;2.47;;
990;SDS011;484;48.128;11.602;2024-01-30T10:55:17;6.03;;;2.73;;
990;SDS011;484;48.128;11.602;2024-01-30T10:58:04;2.90;;;2.43;;
990;SDS011;484;48.128;11.602;2024-01-30T11:00:50;3.53;;;2.70;;
990;SDS011;484;48.128;11.602;2024-01-30T11:03:35;3.73;;;2.20;;
990;SDS011;484;48.128;11.602;2024-01-30T11:06:22;4.83;;;2.93;;
990;SDS011;484;48.128;11.602;2024-01-30T11:09:10;2.47;;;2.37;;
990;SDS011;484;48.128;11.602;2024-01-30T11:11:56;2.47;;;2.27;;
990;SDS011;484;48.128;11.602;2024-01-30T11:14:45;4.47;;;2.40;;
990;SDS011;484;48.128;11.602;2024-01-30T11:17:39;3.23;;;2.67;;
990;SDS011;484;48.128;11.602;2024-01-30T11:20:27;3.20;;;2.33;;
990;SDS011;484;48.128;11.602;2024-01-30T11:23:13;2.70;;;2.47;;
990;SDS011;484;48.128;11.602;2024-01-30T11:25:59;4.20;;;2.33;;
990;SDS011;484;48.128;11.602;2024-01-30T11:28:52;4.63;;;3.37;;
990;SDS011;484;48.128;11.602;2024-01-30T11:31:38;4.40;;;2.43;;
990;SDS011;484;48.128;11.602;2024-01-30T11:34:24;2.33;;;2.07;;
990;SDS011;484;48.128;11.602;2024-01-30T11:37:09;4.20;;;3.10;;
990;SDS011;484;48.128;11.602;2024-01-30T11:39:56;5.97;;;2.90;;
990;SDS011;484;48.128;11.602;2024-01-30T11:42:42;2.20;;;2.00;;
990;SDS011;484;48.128;11.602;2024-01-30T11:45:27;1.50;;;1.40;;
990;SDS011;484;48.128;11.602;2024-01-30T11:48:14;5.00;;;2.53;;
990;SDS011;484;48.128;11.602;2024-01-30T11:50:59;2.20;;;2.10;;
990;SDS011;484;48.128;11.602;2024-01-30T11:53:44;1.87;;;1.70;;
990;SDS011;484;48.128;11.602;2024-01-30T11:56:34;3.20;;;1.83;;
990;SDS011;484;48.128;11.602;2024-01-30T11:59:19;4.00;;;2.57;;
990;SDS011;484;48.128;11.602;2024-01-30T12:02:05;1.90;;;1.80;;
990;SDS011;484;48.128;11.602;2024-01-30T12:04:52;2.20;;;1.83;;
990;SDS011;484;48.128;11.602;2024-01-30T12:07:37;5.23;;;2.40;;
990;SDS011;484;48.128;11.602;2024-01-30T12:10:22;2.87;;;1.80;;
990;SDS011;484;48.128;11.602;2024-01-30T12:13:08;3.23;;;2.53;;
990;SDS011;484;48.128;11.602;2024-01-30T12:15:53;1.70;;;1.60;;
990;SDS011;484;48.128;11.602;2024-01-30T12:18:39;5.73;;;1.60;;
990;SDS011;484;48.128;11.602;2024-01-30T12:21:25;2.60;;;2.40;;
990;SDS011;484;48.128;11.602;2024-01-30T12:24:11;2.10;;;1.90;;
990;SDS011;484;48.128;11.602;2024-01-30T12:26:57;3.97;;;2.87;;
990;SDS011;484;48.128;11.602;2024-01-30T12:29:43;3.70;;;1.63;;
990;SDS011;484;48.128;11.602;2024-01-30T12:32:28;3.90;;;1.70;;
990;SDS011;484;48.128;11.602;2024-01-30T12:35:14;2.80;;;1.97;;
990;SDS011;484;48.128;11.602;2024-01-30T12:38:01;7.33;;;5.33;;
990;SDS011;484;48.128;11.602;2024-01-30T12:40:47;1.90;;;1.80;;
990;SDS011;484;48.128;11.602;2024-01-30T12:43:32;3.33;;;2.30;;
990;SDS011;484;48.128;11.602;2024-01-30T12:46:18;5.53;;;2.20;;
990;SDS011;484;48.128;11.602;2024-01-30T12:49:03;2.37;;;1.93;;
990;SDS011;484;48.128;11.602;2024-01-30T12:51:49;2.37;;;1.73;;
990;SDS011;484;48.128;11.602;2024-01-30T12:54:36;2.80;;;1.90;;
990;SDS011;484;48.128;11.602;2024-01-30T12:57:21;2.43;;;2.23;;
990;SDS011;484;48.128;11.602;2024-01-30T13:00:07;4.07;;;2.50;;
990;SDS011;484;48.128;11.602;2024-01-30T13:02:53;4.53;;;2.07;;
990;SDS011;484;48.128;11.602;2024-01-30T13:05:38;8.13;;;2.40;;
990;SDS011;484;48.128;11.602;2024-01-30T13:08:24;2.87;;;2.33;;
990;SDS011;484;48.128;11.602;2024-01-30T13:11:11;4.57;;;3.40;;
990;SDS011;484;48.128;11.602;2024-01-30T13:13:56;2.57;;;1.50;;
990;SDS011;484;48.128;11.602;2024-01-30T13:16:42;3.10;;;1.80;;
990;SDS011;484;48.128;11.602;2024-01-30T13:19:28;4.03;;;3.73;;
990;SDS011;484;48.128;11.602;2024-01-30T13:22:13;2.63;;;2.27;;
990;SDS011;484;48.128;11.602;2024-01-30T13:24:58;2.93;;;1.60;;
990;SDS011;484;48.128;11.602;2024-01-30T13:27:45;3.60;;;2.03;;
990;SDS011;484;48.128;11.602;2024-01-30T13:30:31;2.57;;;1.87;;
990;SDS011;484;48.128;11.602;2024-01-30T13:33:16;2.83;;;1.90;;
990;SDS011;484;48.128;11.602;2024-01-30T13:36:02;3.43;;;1.93;;
990;SDS011;484;48.128;11.602;2024-01-30T13:38:48;3.33;;;2.47;;
990;SDS011;484;48.128;11.602;2024-01-30T13:41:33;2.13;;;2.00;;
990;SDS011;484;48.128;11.602;2024-01-30T13:44:22;1.77;;;1.67;;
990;SDS011;484;48.128;11.602;2024-01-30T13:47:15;1.40;;;1.20;;
990;SDS011;484;48.128;11.602;2024-01-30T13:50:02;1.53;;;1.43;;
990;SDS011;484;48.128;11.602;2024-01-30T13:52:48;3.63;;;1.50;;
990;SDS011;484;48.128;11.602;2024-01-30T13:55:34;2.93;;;1.83;;
990;SDS011;484;48.128;11.602;2024-01-30T13:58:19;1.60;;;1.50;;
990;SDS011;484;48.128;11.602;2024-01-30T14:01:06;3.10;;;1.87;;
990;SDS011;484;48.128;11.602;2024-01-30T14:03:53;3.20;;;1.60;;
990;SDS011;484;48.128;11.602;2024-01-30T14:06:39;3.53;;;1.90;;
990;SDS011;484;48.128;11.602;2024-01-30T14:09:24;2.23;;;1.70;;
990;SDS011;484;48.128;11.602;2024-01-30T14:12:10;2.83;;;1.57;;
990;SDS011;484;48.128;11.602;2024-01-30T14:14:55;5.07;;;1.73;;
990;SDS011;484;48.128;11.602;2024-01-30T14:17:42;5.33;;;2.10;;
990;SDS011;484;48.128;11.602;2024-01-30T14:20:27;2.90;;;1.87;;
990;SDS011;484;48.128;11.602;2024-01-30T14:23:13;1.70;;;1.50;;
990;SDS011;484;48.128;11.602;2024-01-30T14:25:59;2.43;;;2.23;;
990;SDS011;484;48.128;11.602;2024-01-30T14:28:44;2.20;;;2.03;;
990;SDS011;484;48.128;11.602;2024-01-30T14:31:31;2.60;;;2.03;;
990;SDS011;484;48.128;11.602;2024-01-30T14:34:17;4.73;;;1.73;;
990;SDS011;484;48.128;11.602;2024-01-30T14:37:03;2.07;;;1.83;;
990;SDS011;484;48.128;11.602;2024-01-30T14:39:48;3.00;;;2.13;;
990;SDS011;484;48.128;11.602;2024-01-30T14:42:34;2.87;;;2.33;;
990;SDS011;484;48.128;11.602;2024-01-30T14:45:19;2.63;;;1.70;;
990;SDS011;484;48.128;11.602;2024-01-30T14:48:06;3.77;;;2.50;;
990;SDS011;484;48.128;11.602;2024-01-30T14:50:53;3.60;;;2.67;;
990;SDS011;484;48.128;11.602;2024-01-30T14:53:39;2.60;;;2.27;;
990;SDS011;484;48.128;11.602;2024-01-30T14:56:25;4.50;;;2.83;;
990;SDS011;484;48.128;11.602;2024-01-30T14:59:11;8.03;;;3.27;;
990;SDS011;484;48.128;11.602;2024-01-30T15:01:56;4.87;;;2.60;;
990;SDS011;484;48.128;11.602;2024-01-30T15:04:41;2.90;;;1.90;;
990;SDS011;484;48.128;11.602;2024-01-30T15:07:28;3.20;;;1.93;;
990;SDS011;484;48.128;11.602;2024-01-30T15:10:14;2.50;;;1.93;;
990;SDS011;484;48.128;11.602;2024-01-30T15:13:00;3.17;;;2.17;;
990;SDS011;484;48.128;11.602;2024-01-30T15:15:45;11.53;;;2.70;;
990;SDS011;484;48.128;11.602;2024-01-30T15:18:30;4.73;;;2.20;;
990;SDS011;484;48.128;11.602;2024-01-30T15:21:16;5.87;;;2.77;;
990;SDS011;484;48.128;11.602;2024-01-30T15:24:07;2.13;;;1.93;;
990;SDS011;484;48.128;11.602;2024-01-30T15:26:52;2.20;;;1.97;;
990;SDS011;484;48.128;11.602;2024-01-30T15:29:38;3.90;;;2.20;;
990;SDS011;484;48.128;11.602;2024-01-30T15:32:23;1.97;;;1.87;;
990;SDS011;484;48.128;11.602;2024-01-30T15:35:09;7.40;;;2.07;;
990;SDS011;484;48.128;11.602;2024-01-30T15:37:54;2.20;;;2.10;;
990;SDS011;484;48.128;11.602;2024-01-30T15:40:41;2.87;;;2.27;;
990;SDS011;484;48.128;11.602;2024-01-30T15:43:26;1.93;;;1.73;;
990;SDS011;484;48.128;11.602;2024-01-30T15:46:11;3.73;;;2.90;;
990;SDS011;484;48.128;11.602;2024-01-30T15:48:57;3.40;;;3.10;;
990;SDS011;484;48.128;11.602;2024-01-30T15:51:43;5.50;;;2.50;;
990;SDS011;484;48.128;11.602;2024-01-30T15:54:28;4.30;;;2.63;;
990;SDS011;484;48.128;11.602;2024-01-30T15:57:15;6.30;;;3.37;;
990;SDS011;484;48.128;11.602;2024-01-30T16:00:01;6.07;;;3.27;;
990;SDS011;484;48.128;11.602;2024-01-30T16:02:47;5.53;;;3.60;;
990;SDS011;484;48.128;11.602;2024-01-30T16:05:33;16.93;;;6.90;;
990;SDS011;484;48.128;11.602;2024-01-30T16:08:18;6.83;;;2.80;;
990;SDS011;484;48.128;11.602;2024-01-30T16:11:04;10.17;;;3.13;;
990;SDS011;484;48.128;11.602;2024-01-30T16:13:51;10.90;;;4.97;;
990;SDS011;484;48.128;11.602;2024-01-30T16:16:36;6.83;;;4.00;;
990;SDS011;484;48.128;11.602;2024-01-30T16:19:22;7.03;;;5.00;;
990;SDS011;484;48.128;11.602;2024-01-30T16:22:08;9.77;;;3.80;;
990;SDS011;484;48.128;11.602;2024-01-30T16:24:53;6.20;;;2.63;;
990;SDS011;484;48.128;11.602;2024-01-30T16:27:39;5.63;;;2.93;;
990;SDS011;484;48.128;11.602;2024-01-30T16:30:25;8.77;;;5.70;;
990;SDS011;484;48.128;11.602;2024-01-30T16:33:11;15.30;;;9.70;;
990;SDS011;484;48.128;11.602;2024-01-30T16:35:57;8.47;;;4.63;;
990;SDS011;484;48.128;11.602;2024-01-30T16:38:42;7.90;;;4.53;;
990;SDS011;484;48.128;11.602;2024-01-30T16:41:27;6.07;;;4.57;;
990;SDS011;484;48.128;11.602;2024-01-30T16:44:13;7.73;;;5.03;;
990;SDS011;484;48.128;11.602;2024-01-30T16:47:00;6.40;;;3.47;;
990;SDS011;484;48.128;11.602;2024-01-30T16:49:45;8.77;;;4.37;;
990;SDS011;484;48.128;11.602;2024-01-30T16:52:31;12.50;;;5.20;;
990;SDS011;484;48.128;11.602;2024-01-30T16:55:16;14.73;;;4.73;;
990;SDS011;484;48.128;11.602;2024-01-30T16:58:02;9.03;;;4.40;;
990;SDS011;484;48.128;11.602;2024-01-30T17:00:47;16.27;;;4.90;;
990;SDS011;484;48.128;11.602;2024-01-30T17:03:34;9.47;;;3.77;;
990;SDS011;484;48.128;11.602;2024-01-30T17:06:20;7.93;;;2.77;;
990;SDS011;484;48.128;11.602;2024-01-30T17:09:05;14.47;;;4.07;;
990;SDS011;484;48.128;11.602;2024-01-30T17:11:51;13.63;;;3.50;;
990;SDS011;484;48.128;11.602;2024-01-30T17:14:37;10.73;;;4.90;;
990;SDS011;484;48.128;11.602;2024-01-30T17:17:24;8.23;;;5.90;;
990;SDS011;484;48.128;11.602;2024-01-30T17:20:11;20.00;;;6.70;;
990;SDS011;484;48.128;11.602;2024-01-30T17:22:57;10.43;;;4.87;;
990;SDS011;484;48.128;11.602;2024-01-30T17:25:43;16.33;;;5.10;;
990;SDS011;484;48.128;11.602;2024-01-30T17:28:29;9.90;;;4.80;;
990;SDS011;484;48.128;11.602;2024-01-30T17:31:14;13.60;;;4.40;;
990;SDS011;484;48.128;11.602;2024-01-30T17:34:00;14.03;;;4.90;;
990;SDS011;484;48.128;11.602;2024-01-30T17:36:47;16.43;;;6.93;;
990;SDS011;484;48.128;11.602;2024-01-30T17:39:32;14.40;;;5.67;;
990;SDS011;484;48.128;11.602;2024-01-30T17:42:18;13.40;;;5.67;;
990;SDS011;484;48.128;11.602;2024-01-30T17:45:05;4.40;;;3.57;;
990;SDS011;484;48.128;11.602;2024-01-30T17:47:51;18.67;;;4.73;;
990;SDS011;484;48.128;11.602;2024-01-30T17:50:37;6.90;;;4.73;;
990;SDS011;484;48.128;11.602;2024-01-30T17:53:26;7.10;;;4.43;;
990;SDS011;484;48.128;11.602;2024-01-30T17:56:13;6.43;;;5.27;;
990;SDS011;484;48.128;11.602;2024-01-30T17:58:59;6.97;;;4.60;;
990;SDS011;484;48.128;11.602;2024-01-30T18:01:45;13.63;;;5.27;;
990;SDS011;484;48.128;11.602;2024-01-30T18:04:31;23.43;;;5.10;;
990;SDS011;484;48.128;11.602;2024-01-30T18:07:17;20.40;;;6.13;;
990;SDS011;484;48.128;11.602;2024-01-30T18:10:05;9.40;;;5.13;;
990;SDS011;484;48.128;11.602;2024-01-30T18:12:52;15.37;;;4.70;;
990;SDS011;484;48.128;11.602;2024-01-30T18:15:40;6.93;;;4.70;;
990;SDS011;484;48.128;11.602;2024-01-30T18:18:25;16.13;;;6.20;;
990;SDS011;484;48.128;11.602;2024-01-30T18:21:10;8.27;;;4.90;;
990;SDS011;484;48.128;11.602;2024-01-30T18:23:59;7.77;;;4.40;;
990;SDS011;484;48.128;11.602;2024-01-30T18:26:46;11.60;;;5.33;;
990;SDS011;484;48.128;11.602;2024-01-30T18:29:31;6.20;;;3.83;;
990;SDS011;484;48.128;11.602;2024-01-30T18:32:17;12.23;;;5.90;;
990;SDS011;484;48.128;11.602;2024-01-30T18:35:02;21.70;;;6.17;;
990;SDS011;484;48.128;11.602;2024-01-30T18:37:48;6.00;;;5.00;;
990;SDS011;484;48.128;11.602;2024-01-30T18:40:33;7.10;;;4.20;;
990;SDS011;484;48.128;11.602;2024-01-30T18:43:21;14.67;;;5.63;;
990;SDS011;484;48.128;11.602;2024-01-30T18:46:07;7.87;;;5.47;;
990;SDS011;484;48.128;11.602;2024-01-30T18:48:53;11.23;;;4.67;;
990;SDS011;484;48.128;11.602;2024-01-30T18:51:39;9.83;;;3.80;;
990;SDS011;484;48.128;11.602;2024-01-30T18:54:25;10.40;;;6.10;;
990;SDS011;484;48.128;11.602;2024-01-30T18:57:10;7.93;;;5.17;;
990;SDS011;484;48.128;11.602;2024-01-30T18:59:58;8.40;;;4.23;;
990;SDS011;484;48.128;11.602;2024-01-30T19:02:44;8.73;;;5.37;;
990;SDS011;484;48.128;11.602;2024-01-30T19:05:29;5.23;;;3.63;;
990;SDS011;484;48.128;11.602;2024-01-30T19:08:15;14.27;;;4.80;;
990;SDS011;484;48.128;11.602;2024-01-30T19:11:00;4.47;;;3.90;;
990;SDS011;484;48.128;11.602;2024-01-30T19:13:46;10.20;;;4.03;;
990;SDS011;484;48.128;11.602;2024-01-30T19:16:33;4.10;;;3.80;;